createdAt,value
2023-09-22T00:01:32.440Z,100028.84
2023-09-22T00:06:34.420Z,100036.19
2023-09-22T00:11:36.267Z,100031.28
2023-09-22T00:16:38.217Z,100028.53
2023-09-22T00:21:40.176Z,100037.31
2023-09-22T00:26:42.164Z,100039.03
2023-09-22T00:31:44.279Z,100041.56
2023-09-22T00:36:46.375Z,100036.31
2023-09-22T00:41:48.385Z,100035.41
2023-09-22T00:46:50.469Z,100025.69
2023-09-22T00:51:52.421Z,100035.66
2023-09-22T00:56:54.428Z,100031.13
2023-09-22T01:01:56.540Z,100036.25
2023-09-22T01:06:58.274Z,100028.47
2023-09-22T01:12:00.190Z,100032.31
2023-09-22T01:17:02.157Z,100036.03
2023-09-22T01:22:04.176Z,100043.63
2023-09-22T01:27:06.317Z,100039.72
2023-09-22T01:32:08.058Z,100040.91
2023-09-22T01:37:10.053Z,100038.72
2023-09-22T01:42:11.910Z,100038.81
2023-09-22T01:47:13.805Z,100044.59
2023-09-22T01:52:15.721Z,100039.44
2023-09-22T01:57:17.733Z,100033.56
2023-09-22T02:02:19.511Z,100047.53
2023-09-22T02:07:21.512Z,100047.94
2023-09-22T02:12:23.211Z,100038.91
2023-09-22T02:17:25.044Z,100043.22
2023-09-22T02:22:27.030Z,100045.22
2023-09-22T02:27:29.013Z,100056.28
2023-09-22T02:32:30.867Z,100055.84
2023-09-22T02:37:32.916Z,100048.56
2023-09-22T02:42:35.144Z,100058.28
2023-09-22T02:47:40.793Z,100064.53
2023-09-22T02:52:42.844Z,100062.16
2023-09-22T02:57:44.854Z,100067.75
2023-09-22T03:02:47.006Z,100067.47
2023-09-22T03:07:50.161Z,100067.84
2023-09-22T03:12:52.360Z,100075.28
2023-09-22T03:17:54.593Z,100074.69
2023-09-22T03:22:56.785Z,100080.38
2023-09-22T03:27:58.614Z,100079.00
2023-09-22T03:33:00.694Z,100077.50
2023-09-22T03:38:02.894Z,100077.47
2023-09-22T03:43:04.707Z,100080.16
2023-09-22T03:48:07.069Z,100082.19
2023-09-22T03:53:09.052Z,100082.19
2023-09-22T03:58:11.124Z,100092.22
2023-09-22T04:03:13.468Z,100093.56
2023-09-22T04:08:15.555Z,100096.63
2023-09-22T04:13:17.312Z,100096.31
2023-09-22T04:18:19.288Z,100099.16
2023-09-22T04:23:21.071Z,100098.84
2023-09-22T04:28:26.241Z,100104.13
2023-09-22T04:33:28.411Z,100105.41
2023-09-22T04:38:30.472Z,100105.00
2023-09-22T04:43:32.231Z,100114.88
2023-09-22T04:48:34.269Z,100110.31
2023-09-22T04:53:37.582Z,100113.28
2023-09-22T04:58:39.385Z,100122.84
2023-09-22T05:03:41.764Z,100126.72
2023-09-22T05:08:44.089Z,100122.13
2023-09-22T05:13:46.243Z,100127.28
2023-09-22T05:18:48.086Z,100125.06
2023-09-22T05:23:50.094Z,100133.75
2023-09-22T05:28:51.891Z,100131.88
2023-09-22T05:33:53.923Z,100140.47
2023-09-22T05:38:56.001Z,100139.44
2023-09-22T05:43:57.717Z,100151.31
2023-09-22T05:48:59.744Z,100150.44
2023-09-22T05:54:01.703Z,100155.59
2023-09-22T05:59:03.632Z,100155.59
2023-09-22T06:04:06.041Z,100156.41
2023-09-22T06:09:08.138Z,100164.78
2023-09-22T06:14:10.110Z,100155.13
2023-09-22T06:19:12.201Z,100143.72
2023-09-22T06:24:14.167Z,100142.97
2023-09-22T06:29:16.178Z,100138.50
2023-09-22T06:34:18.094Z,100144.09
2023-09-22T06:39:20.088Z,100145.34
2023-09-22T06:44:22.152Z,100153.94
2023-09-22T06:49:24.065Z,100151.75
2023-09-22T06:54:26.090Z,100155.25
2023-09-22T06:59:28.036Z,100151.56
2023-09-22T07:04:29.978Z,100153.50
2023-09-22T07:09:32.020Z,100153.75
2023-09-22T07:14:34.060Z,100149.44
2023-09-22T07:19:39.607Z,100162.16
2023-09-22T07:24:41.550Z,100158.81
2023-09-22T07:29:43.770Z,100150.59
2023-09-22T07:34:45.917Z,100161.34
2023-09-22T07:39:47.951Z,100171.94
2023-09-22T07:44:49.915Z,100174.88
2023-09-22T07:49:51.897Z,100178.47
2023-09-22T07:54:53.848Z,100189.44
2023-09-22T07:59:55.844Z,100186.94
2023-09-22T08:04:57.797Z,100185.91
2023-09-22T08:09:59.856Z,100186.06
2023-09-22T08:15:01.869Z,100190.97
2023-09-22T08:20:04.824Z,100192.94
2023-09-22T08:25:08.698Z,100190.22
2023-09-22T08:30:11.946Z,100189.88
2023-09-22T08:35:14.815Z,100199.53
2023-09-22T08:40:17.447Z,100200.69
2023-09-22T08:45:19.667Z,100197.63
2023-09-22T08:50:21.777Z,100205.81
2023-09-22T08:55:23.802Z,100212.19
2023-09-22T09:00:27.356Z,100213.16
2023-09-22T09:05:30.808Z,100209.41
2023-09-22T09:10:36.063Z,100213.34
2023-09-22T09:15:48.618Z,100205.41
2023-09-22T09:21:12.808Z,100208.41
2023-09-22T09:26:14.819Z,100205.03
2023-09-22T09:31:16.877Z,100199.81
2023-09-22T09:36:18.895Z,100201.91
2023-09-22T09:41:20.945Z,100205.31
2023-09-22T09:46:23.066Z,100196.84
2023-09-22T09:51:25.121Z,100196.34
2023-09-22T09:56:27.147Z,100191.53
2023-09-22T10:01:29.207Z,100199.75
2023-09-22T10:06:38.145Z,100194.16
2023-09-22T10:11:40.594Z,100189.97
2023-09-22T10:16:42.690Z,100196.34
2023-09-22T10:21:44.773Z,100189.75
2023-09-22T10:27:10.711Z,100191.84
2023-09-22T10:32:18.847Z,100175.69
2023-09-22T10:37:26.366Z,100183.97
2023-09-22T10:42:28.648Z,100177.28
2023-09-22T10:47:40.538Z,100172.59
2023-09-22T10:52:53.334Z,100167.19
2023-09-22T10:57:56.230Z,100158.63
2023-09-22T11:03:13.705Z,100170.41
2023-09-22T11:08:16.551Z,100161.22
2023-09-22T11:13:18.468Z,100164.03
2023-09-22T11:18:35.789Z,100148.84
2023-09-22T11:23:39.063Z,100148.75
2023-09-22T11:28:42.016Z,100149.44
2023-09-22T11:33:45.000Z,100144.31
2023-09-22T11:38:54.135Z,100137.47
2023-09-22T11:43:56.194Z,100139.53
2023-09-22T11:49:07.400Z,100146.28
2023-09-22T11:54:09.764Z,100141.75
2023-09-22T11:59:19.444Z,100142.97
2023-09-22T12:04:21.869Z,100146.16
2023-09-22T12:09:23.952Z,100137.09
2023-09-22T12:14:25.903Z,100133.19
2023-09-22T12:19:28.056Z,100138.31
2023-09-22T12:24:30.112Z,100140.53
2023-09-22T12:29:32.309Z,100135.13
2023-09-22T12:34:34.309Z,100131.59
2023-09-22T12:39:36.304Z,100128.78
2023-09-22T12:44:38.240Z,100127.19
2023-09-22T12:49:40.283Z,100116.53
2023-09-22T12:54:42.340Z,100122.50
2023-09-22T12:59:44.399Z,100114.94
2023-09-22T13:04:48.095Z,100107.81
2023-09-22T13:09:52.963Z,100111.16
2023-09-22T13:14:55.268Z,100107.72
2023-09-22T13:19:57.427Z,100104.50
2023-09-22T13:24:59.464Z,100102.31
2023-09-22T13:30:01.530Z,100097.38
2023-09-22T13:35:06.209Z,100094.03
2023-09-22T13:40:08.962Z,100090.25
2023-09-22T13:45:11.189Z,100094.00
2023-09-22T13:50:13.327Z,100088.97
2023-09-22T13:55:15.342Z,100084.69
2023-09-22T14:00:17.463Z,100084.47
2023-09-22T14:05:19.499Z,100086.53
2023-09-22T14:10:21.716Z,100086.44
2023-09-22T14:15:23.760Z,100081.00
2023-09-22T14:20:25.740Z,100079.03
2023-09-22T14:25:27.875Z,100075.13
2023-09-22T14:30:29.984Z,100081.56
2023-09-22T14:35:31.988Z,100076.25
2023-09-22T14:40:34.863Z,100081.22
2023-09-22T14:45:37.504Z,100087.91
2023-09-22T14:50:39.624Z,100088.34
2023-09-22T14:55:42.242Z,100089.13
2023-09-22T15:00:44.245Z,100091.66
2023-09-22T15:05:46.382Z,100092.31
2023-09-22T15:10:52.262Z,100089.00
2023-09-22T15:15:54.145Z,100096.28
2023-09-22T15:21:03.891Z,100095.19
2023-09-22T15:26:06.897Z,100093.19
2023-09-22T15:31:10.096Z,100099.53
2023-09-22T15:36:12.466Z,100097.41
2023-09-22T15:41:15.636Z,100098.78
2023-09-22T15:46:17.794Z,100101.56
2023-09-22T15:51:19.848Z,100107.56
2023-09-22T15:56:22.002Z,100111.63
2023-09-22T16:01:24.146Z,100113.78
2023-09-22T16:06:26.207Z,100111.63
2023-09-22T16:11:28.154Z,100116.41
2023-09-22T16:16:30.276Z,100116.94
2023-09-22T16:21:32.401Z,100121.56
2023-09-22T16:26:34.451Z,100123.47
2023-09-22T16:31:37.064Z,100125.63
2023-09-22T16:36:39.235Z,100123.53
2023-09-22T16:41:41.364Z,100125.38
2023-09-22T16:46:43.453Z,100131.13
2023-09-22T16:51:45.593Z,100132.78
2023-09-22T16:56:47.667Z,100133.38
2023-09-22T17:01:49.728Z,100135.00
2023-09-22T17:06:51.786Z,100140.75
2023-09-22T17:11:53.819Z,100135.75
2023-09-22T17:16:56.255Z,100137.59
2023-09-22T17:21:58.276Z,100139.06
2023-09-22T17:27:00.249Z,100140.97
2023-09-22T17:32:01.987Z,100142.63
2023-09-22T17:37:04.016Z,100140.91
2023-09-22T17:42:05.924Z,100142.72
2023-09-22T17:47:07.816Z,100148.59
2023-09-22T17:52:09.679Z,100144.94
2023-09-22T17:57:11.428Z,100147.63
2023-09-22T18:02:13.636Z,100146.09
2023-09-22T18:07:15.701Z,100148.50
2023-09-22T18:12:17.413Z,100147.09
2023-09-22T18:17:19.878Z,100152.44
2023-09-22T18:22:21.922Z,100145.75
2023-09-22T18:27:24.239Z,100148.03
2023-09-22T18:32:26.213Z,100140.78
2023-09-22T18:37:28.556Z,100135.63
2023-09-22T18:42:30.619Z,100142.66
2023-09-22T18:47:32.699Z,100140.16
2023-09-22T18:52:34.997Z,100145.53
2023-09-22T18:57:37.000Z,100135.00
2023-09-22T19:02:38.846Z,100139.59
2023-09-22T19:07:41.698Z,100140.31
2023-09-22T19:12:43.766Z,100129.75
2023-09-22T19:17:46.050Z,100138.69
2023-09-22T19:22:48.250Z,100133.81
2023-09-22T19:27:50.515Z,100147.19
2023-09-22T19:32:52.555Z,100142.69
2023-09-22T19:37:54.665Z,100147.38
2023-09-22T19:42:56.700Z,100145.47
2023-09-22T19:47:58.535Z,100138.00
2023-09-22T19:53:00.645Z,100144.13
2023-09-22T19:58:03.270Z,100140.69
2023-09-22T20:03:05.490Z,100143.63
2023-09-22T20:08:07.581Z,100149.63
2023-09-22T20:13:10.035Z,100151.19
2023-09-22T20:18:12.079Z,100138.66
2023-09-22T20:23:14.113Z,100148.78
2023-09-22T20:28:15.865Z,100156.84
2023-09-22T20:33:18.012Z,100149.03
2023-09-22T20:38:20.644Z,100140.63
2023-09-22T20:43:24.841Z,100149.94
2023-09-22T20:48:26.842Z,100153.53
2023-09-22T20:53:28.704Z,100155.53
2023-09-22T20:58:30.968Z,100160.75
2023-09-22T21:03:33.370Z,100166.38
2023-09-22T21:08:35.556Z,100169.22
2023-09-22T21:13:37.385Z,100159.50
2023-09-22T21:18:39.408Z,100169.59
2023-09-22T21:23:41.200Z,100169.38
2023-09-22T21:28:43.349Z,100172.06
2023-09-22T21:33:45.472Z,100173.34
2023-09-22T21:38:47.517Z,100178.56
2023-09-22T21:43:49.730Z,100169.72
2023-09-22T21:48:51.884Z,100176.50
2023-09-22T21:53:53.635Z,100162.22
2023-09-22T21:58:55.620Z,100170.22
2023-09-22T22:03:57.707Z,100174.78
2023-09-22T22:08:59.657Z,100170.31
2023-09-22T22:14:01.623Z,100179.09
2023-09-22T22:19:03.613Z,100177.34
2023-09-22T22:24:05.810Z,100173.22
2023-09-22T22:29:07.867Z,100178.56
2023-09-22T22:34:09.991Z,100175.44
2023-09-22T22:39:11.975Z,100178.25
2023-09-22T22:44:14.087Z,100181.50
2023-09-22T22:49:16.238Z,100181.41
2023-09-22T22:54:18.065Z,100182.75
2023-09-22T22:59:20.365Z,100180.94
2023-09-22T23:04:22.430Z,100183.13
2023-09-22T23:09:24.152Z,100179.13
2023-09-22T23:14:26.299Z,100181.56
2023-09-22T23:19:28.395Z,100178.03
2023-09-22T23:24:30.330Z,100181.19
2023-09-22T23:29:32.397Z,100181.47
2023-09-22T23:34:34.124Z,100184.84
2023-09-22T23:39:36.075Z,100181.25
2023-09-22T23:44:38.024Z,100186.09
2023-09-22T23:49:40.005Z,100188.06
2023-09-22T23:54:41.952Z,100188.53
2023-09-22T23:59:44.417Z,100186.25
